Terminal Aerodrome Forecast
Issued by NWS

Home | Current Version | Previous Version | Text Only | Print | Product List | Glossary On
Versions: 1 2 3 4 5 6 7 8 9 10 11 12 13 14 15 16 17 18
000
FTUS45 KVEF 272300
TAFVGT
TAF
KVGT 272331Z 2800/2824 15009KT P6SM SCT025 BKN050
     FM280300 33006KT P6SM FEW050 SCT250
     FM281700 VRB05KT P6SM FEW050 OVC250=

USA.gov is the U.S. government's official web portal to all federal, state and local government web resources and services.